createdAt,value
2022-12-26T00:01:29.754Z,5.90
2022-12-26T00:03:58.071Z,6.00
2022-12-26T00:06:29.091Z,5.90
2022-12-26T00:08:57.759Z,5.90
2022-12-26T00:11:26.478Z,5.90
2022-12-26T00:13:56.928Z,5.80
2022-12-26T00:16:25.493Z,5.90
2022-12-26T00:18:53.395Z,5.90
2022-12-26T00:21:22.675Z,5.90
2022-12-26T00:23:50.350Z,6.00
2022-12-26T00:26:21.202Z,6.00
2022-12-26T00:28:49.223Z,6.00
2022-12-26T00:31:24.426Z,6.00
2022-12-26T00:33:52.618Z,6.00
2022-12-26T00:36:24.761Z,6.00
2022-12-26T00:38:52.729Z,6.00
2022-12-26T00:41:22.225Z,5.90
2022-12-26T00:43:50.170Z,5.90
2022-12-26T00:46:18.827Z,6.00
2022-12-26T00:48:46.315Z,5.90
2022-12-26T00:51:14.801Z,5.90
2022-12-26T00:53:42.612Z,5.90
2022-12-26T00:56:10.518Z,5.90
2022-12-26T00:58:38.270Z,5.90
2022-12-26T01:01:20.980Z,6.00
2022-12-26T01:03:50.435Z,6.00
2022-12-26T01:06:18.502Z,5.90
2022-12-26T01:08:45.971Z,5.90
2022-12-26T01:11:15.860Z,5.90
2022-12-26T01:13:43.805Z,5.90
2022-12-26T01:16:11.458Z,5.90
2022-12-26T01:18:38.984Z,5.90
2022-12-26T01:21:10.844Z,5.90
2022-12-26T01:23:38.351Z,5.90
2022-12-26T01:26:18.263Z,5.90
2022-12-26T01:28:49.727Z,5.90
2022-12-26T01:31:18.789Z,5.90
2022-12-26T01:33:47.247Z,5.90
2022-12-26T01:36:16.256Z,5.80
2022-12-26T01:38:44.075Z,5.90
2022-12-26T01:41:19.664Z,5.90
2022-12-26T01:44:07.439Z,5.80
2022-12-26T01:46:45.069Z,5.80
2022-12-26T01:49:38.101Z,5.50
2022-12-26T01:52:16.237Z,5.40
2022-12-26T01:54:48.616Z,5.30
2022-12-26T01:57:43.425Z,5.20
2022-12-26T02:00:12.559Z,5.20
2022-12-26T02:02:59.522Z,5.30
2022-12-26T02:05:35.609Z,5.30
2022-12-26T02:08:09.975Z,5.30
2022-12-26T02:11:08.396Z,5.30
2022-12-26T02:13:38.558Z,5.40
2022-12-26T02:16:09.725Z,5.50
2022-12-26T02:18:37.227Z,5.40
2022-12-26T02:21:38.129Z,5.30
2022-12-26T02:25:03.358Z,5.30
2022-12-26T02:27:48.243Z,5.40
2022-12-26T02:30:52.473Z,5.40
2022-12-26T02:33:31.213Z,5.40
2022-12-26T02:36:01.154Z,5.40
2022-12-26T02:38:50.292Z,5.40
2022-12-26T02:41:47.343Z,5.50
2022-12-26T02:45:13.040Z,5.60
2022-12-26T02:48:06.071Z,5.60
2022-12-26T02:51:13.634Z,5.70
2022-12-26T02:54:43.041Z,5.60
2022-12-26T02:57:37.380Z,5.70
2022-12-26T03:00:35.616Z,5.70
2022-12-26T03:03:25.635Z,5.50
2022-12-26T03:06:32.207Z,5.20
2022-12-26T03:09:33.460Z,5.20
2022-12-26T03:13:10.173Z,5.20
2022-12-26T03:16:15.046Z,5.10
2022-12-26T03:18:58.832Z,5.20
2022-12-26T03:21:40.911Z,5.20
2022-12-26T03:24:11.926Z,5.30
2022-12-26T03:26:48.609Z,5.30
2022-12-26T03:29:42.862Z,5.30
2022-12-26T03:32:13.152Z,5.50
2022-12-26T03:34:45.153Z,5.50
2022-12-26T03:37:47.987Z,5.60
2022-12-26T03:41:06.559Z,5.60
2022-12-26T03:44:21.682Z,5.50
2022-12-26T03:47:31.341Z,5.40
2022-12-26T03:50:33.680Z,5.50
2022-12-26T03:53:47.948Z,5.50
2022-12-26T03:56:46.178Z,5.60
2022-12-26T03:59:44.996Z,5.60
2022-12-26T04:02:33.575Z,5.70
2022-12-26T04:05:24.107Z,5.80
2022-12-26T04:08:19.113Z,5.70
2022-12-26T04:11:16.663Z,5.80
2022-12-26T04:14:23.960Z,5.80
2022-12-26T04:17:42.977Z,5.80
2022-12-26T04:20:25.457Z,5.80
2022-12-26T04:23:25.386Z,5.80
2022-12-26T04:26:22.210Z,5.80
2022-12-26T04:29:08.153Z,5.90
2022-12-26T04:32:29.263Z,6.00
2022-12-26T04:36:02.421Z,6.10
2022-12-26T04:38:57.267Z,6.20
2022-12-26T04:41:44.148Z,6.30
2022-12-26T04:44:13.448Z,6.20
2022-12-26T04:46:50.832Z,6.10
2022-12-26T04:49:37.917Z,6.10
2022-12-26T04:52:12.411Z,6.10
2022-12-26T04:54:42.416Z,6.10
2022-12-26T04:57:11.495Z,6.10
2022-12-26T04:59:38.940Z,6.00
2022-12-26T05:02:24.882Z,5.80
2022-12-26T05:05:11.084Z,5.80
2022-12-26T05:07:57.498Z,5.80
2022-12-26T05:10:28.505Z,5.70
2022-12-26T05:12:56.512Z,5.60
2022-12-26T05:15:24.310Z,5.70
2022-12-26T05:18:10.476Z,5.70
2022-12-26T05:20:46.540Z,5.70
2022-12-26T05:23:47.040Z,5.70
2022-12-26T05:26:41.870Z,5.80
2022-12-26T05:29:09.465Z,5.90
2022-12-26T05:31:37.336Z,5.90
2022-12-26T05:34:10.900Z,5.90
2022-12-26T05:36:46.983Z,5.90
2022-12-26T05:39:14.936Z,5.90
2022-12-26T05:41:42.380Z,5.90
2022-12-26T05:44:11.054Z,5.80
2022-12-26T05:46:40.083Z,5.70
2022-12-26T05:49:08.124Z,5.80
2022-12-26T05:51:36.114Z,5.90
2022-12-26T05:54:04.350Z,5.90
2022-12-26T05:56:31.775Z,5.80
2022-12-26T05:59:01.634Z,5.80
2022-12-26T06:01:30.513Z,5.80
2022-12-26T06:04:00.624Z,5.80
2022-12-26T06:06:28.980Z,5.60
2022-12-26T06:08:57.829Z,5.50
2022-12-26T06:11:27.357Z,5.60
2022-12-26T06:13:55.979Z,5.50
2022-12-26T06:16:23.980Z,5.50
2022-12-26T06:18:51.500Z,5.50
2022-12-26T06:21:20.517Z,5.60
2022-12-26T06:23:51.692Z,5.70
2022-12-26T06:26:19.251Z,5.70
2022-12-26T06:28:47.809Z,5.70
2022-12-26T06:31:24.678Z,5.70
2022-12-26T06:33:58.340Z,5.70
2022-12-26T06:36:28.163Z,5.60
2022-12-26T06:38:58.733Z,5.60
2022-12-26T06:41:26.275Z,5.60
2022-12-26T06:43:54.036Z,5.60
2022-12-26T06:46:24.371Z,5.60
2022-12-26T06:48:52.677Z,5.60
2022-12-26T06:51:26.185Z,5.60
2022-12-26T06:53:54.252Z,5.60
2022-12-26T06:56:27.980Z,5.60
2022-12-26T06:59:05.138Z,5.70
2022-12-26T07:01:35.471Z,5.60
2022-12-26T07:04:04.784Z,5.60
2022-12-26T07:06:37.913Z,5.50
2022-12-26T07:09:14.985Z,5.50
2022-12-26T07:11:45.933Z,5.50
2022-12-26T07:14:13.622Z,5.60
2022-12-26T07:16:44.667Z,5.50
2022-12-26T07:19:15.630Z,5.50
2022-12-26T07:21:43.661Z,5.80
2022-12-26T07:24:20.121Z,6.10
2022-12-26T07:26:48.740Z,6.50
2022-12-26T07:29:16.939Z,6.90
2022-12-26T07:31:44.957Z,7.00
2022-12-26T07:34:12.493Z,7.00
2022-12-26T07:36:41.255Z,7.20
2022-12-26T07:39:09.646Z,7.30
2022-12-26T07:41:55.896Z,7.50
2022-12-26T07:44:24.200Z,7.50
2022-12-26T07:46:51.611Z,7.60
2022-12-26T07:49:19.017Z,7.60
2022-12-26T07:51:46.422Z,7.70
2022-12-26T07:54:13.996Z,7.90
2022-12-26T07:56:42.031Z,8.00
2022-12-26T07:59:17.200Z,8.10
2022-12-26T08:01:45.203Z,8.10
2022-12-26T08:04:14.106Z,8.20
2022-12-26T08:06:41.658Z,8.20
2022-12-26T08:09:13.584Z,8.20
2022-12-26T08:11:41.014Z,8.20
2022-12-26T08:14:13.518Z,8.30
2022-12-26T08:16:41.314Z,8.30
2022-12-26T08:19:09.042Z,8.40
2022-12-26T08:21:36.525Z,8.40
2022-12-26T08:24:06.457Z,8.50
2022-12-26T08:26:34.000Z,8.50
2022-12-26T08:29:03.792Z,8.50
2022-12-26T08:31:31.161Z,8.50
2022-12-26T08:33:58.823Z,8.50
2022-12-26T08:36:26.498Z,8.40
2022-12-26T08:38:54.725Z,8.40
2022-12-26T08:41:22.200Z,8.40
2022-12-26T08:44:25.656Z,8.40
2022-12-26T08:46:41.259Z,8.50
2022-12-26T08:49:08.813Z,8.70
2022-12-26T08:51:37.005Z,8.90
2022-12-26T08:54:05.036Z,9.10
2022-12-26T08:56:32.799Z,9.20
2022-12-26T08:59:00.246Z,9.30
2022-12-26T09:01:33.645Z,9.40
2022-12-26T09:04:04.109Z,9.30
2022-12-26T09:06:37.310Z,9.40
2022-12-26T09:09:06.795Z,9.50
2022-12-26T09:11:34.646Z,9.60
2022-12-26T09:14:04.710Z,9.80
2022-12-26T09:16:41.963Z,9.90
2022-12-26T09:19:14.519Z,9.90
2022-12-26T09:21:42.328Z,9.80
2022-12-26T09:24:16.213Z,10.20
2022-12-26T09:26:44.653Z,10.60
2022-12-26T09:29:13.785Z,10.90
2022-12-26T09:31:41.542Z,10.80
2022-12-26T09:34:09.331Z,10.80
2022-12-26T09:36:39.272Z,10.80
2022-12-26T09:39:08.592Z,10.70
2022-12-26T09:42:19.848Z,10.60
2022-12-26T09:45:16.922Z,10.50
2022-12-26T09:48:27.902Z,10.50
2022-12-26T09:50:55.351Z,10.40
2022-12-26T09:53:35.583Z,10.50
2022-12-26T09:56:53.143Z,10.70
2022-12-26T09:59:15.786Z,11.10
2022-12-26T10:01:43.832Z,11.50
2022-12-26T10:04:30.025Z,11.50
2022-12-26T10:07:00.319Z,11.40
2022-12-26T10:09:55.508Z,11.30
2022-12-26T10:12:34.687Z,11.00
2022-12-26T10:15:26.150Z,10.90
2022-12-26T10:18:15.321Z,10.80
2022-12-26T10:21:24.269Z,10.70
2022-12-26T10:24:11.847Z,10.70
2022-12-26T10:27:06.056Z,10.60
2022-12-26T10:29:52.934Z,10.60
2022-12-26T10:32:46.499Z,10.50
2022-12-26T10:35:32.653Z,10.60
2022-12-26T10:38:40.172Z,10.60
2022-12-26T10:41:42.979Z,10.60
2022-12-26T10:44:13.835Z,10.50
2022-12-26T10:47:28.536Z,10.50
2022-12-26T10:50:02.663Z,10.50
2022-12-26T10:52:38.803Z,10.70
2022-12-26T10:55:28.081Z,11.10
2022-12-26T10:57:58.978Z,11.40
2022-12-26T11:00:28.803Z,11.80
2022-12-26T11:03:07.280Z,11.80
2022-12-26T11:06:18.260Z,11.70
2022-12-26T11:08:47.845Z,11.80
2022-12-26T11:11:47.017Z,12.10
2022-12-26T11:14:38.612Z,12.30
2022-12-26T11:17:26.338Z,12.40
2022-12-26T11:20:14.833Z,12.50
2022-12-26T11:22:46.086Z,12.70
2022-12-26T11:25:25.386Z,12.50
2022-12-26T11:27:59.331Z,12.50
2022-12-26T11:30:31.785Z,12.50
2022-12-26T11:33:13.733Z,12.50
2022-12-26T11:36:07.848Z,12.70
2022-12-26T11:39:05.816Z,12.80
2022-12-26T11:41:41.920Z,13.00
2022-12-26T11:44:13.576Z,13.00
2022-12-26T11:47:02.048Z,12.90
2022-12-26T11:50:01.233Z,12.80
2022-12-26T11:52:52.022Z,12.80
2022-12-26T11:55:37.208Z,12.70
2022-12-26T11:58:10.133Z,12.80
2022-12-26T12:00:54.483Z,12.80
2022-12-26T12:03:49.613Z,13.20
2022-12-26T12:06:32.402Z,12.90
2022-12-26T12:09:11.166Z,12.80
2022-12-26T12:12:10.042Z,12.80
2022-12-26T12:15:03.572Z,12.90
2022-12-26T12:17:49.278Z,12.80
2022-12-26T12:20:59.709Z,12.80
2022-12-26T12:23:59.860Z,12.60
2022-12-26T12:26:43.649Z,12.40
2022-12-26T12:29:41.629Z,12.10
2022-12-26T12:32:26.284Z,11.90
2022-12-26T12:35:27.280Z,11.70
2022-12-26T12:38:24.734Z,11.60
2022-12-26T12:41:29.021Z,11.60
2022-12-26T12:44:10.573Z,11.50
2022-12-26T12:47:03.322Z,11.40
2022-12-26T12:50:00.692Z,11.30
2022-12-26T12:52:55.278Z,11.30
2022-12-26T12:55:43.470Z,11.30
2022-12-26T12:58:51.405Z,11.30
2022-12-26T13:01:26.895Z,11.30
2022-12-26T13:04:16.423Z,11.30
2022-12-26T13:06:52.244Z,11.20
2022-12-26T13:09:41.490Z,11.20
2022-12-26T13:12:22.204Z,11.10
2022-12-26T13:15:06.529Z,11.00
2022-12-26T13:17:53.965Z,10.90
2022-12-26T13:20:39.201Z,10.90
2022-12-26T13:23:48.211Z,10.90
2022-12-26T13:26:25.535Z,11.00
2022-12-26T13:29:40.603Z,11.00
2022-12-26T13:32:17.336Z,11.00
2022-12-26T13:34:46.600Z,11.00
2022-12-26T13:37:32.709Z,11.00
2022-12-26T13:40:04.202Z,10.90
2022-12-26T13:42:57.170Z,10.90
2022-12-26T13:45:49.026Z,10.90
2022-12-26T13:48:19.203Z,10.90
2022-12-26T13:50:55.357Z,10.90
2022-12-26T13:53:26.298Z,10.90
2022-12-26T13:55:56.176Z,10.90
2022-12-26T13:58:36.265Z,10.90
2022-12-26T14:01:30.751Z,10.80
2022-12-26T14:04:38.050Z,10.90
2022-12-26T14:07:30.445Z,10.90
2022-12-26T14:11:03.856Z,10.90
2022-12-26T14:13:57.089Z,10.80
2022-12-26T14:16:54.669Z,10.90
2022-12-26T14:20:20.733Z,10.80
2022-12-26T14:23:26.116Z,10.80
2022-12-26T14:26:02.089Z,10.80
2022-12-26T14:29:07.458Z,10.80
2022-12-26T14:32:19.393Z,10.70
2022-12-26T14:35:20.109Z,10.70
2022-12-26T14:38:05.872Z,10.70
2022-12-26T14:40:38.563Z,10.60
2022-12-26T14:43:17.858Z,10.70
2022-12-26T14:45:51.805Z,10.60
2022-12-26T14:48:19.199Z,10.60
2022-12-26T14:51:14.619Z,10.60
2022-12-26T14:53:44.781Z,10.60
2022-12-26T14:56:18.267Z,10.60
2022-12-26T14:59:28.129Z,10.60
2022-12-26T15:02:28.855Z,10.60
2022-12-26T15:05:14.906Z,10.50
2022-12-26T15:08:09.695Z,10.50
2022-12-26T15:11:10.965Z,10.50
2022-12-26T15:14:21.942Z,10.50
2022-12-26T15:17:27.938Z,10.40
2022-12-26T15:20:16.737Z,10.40
2022-12-26T15:23:32.604Z,10.40
2022-12-26T15:26:33.349Z,10.40
2022-12-26T15:29:24.219Z,10.40
2022-12-26T15:32:37.116Z,10.40
2022-12-26T15:35:40.018Z,10.30
2022-12-26T15:38:29.400Z,10.40
2022-12-26T15:41:14.448Z,10.30
2022-12-26T15:44:14.893Z,10.30
2022-12-26T15:47:04.025Z,10.30
2022-12-26T15:49:56.078Z,10.20
2022-12-26T15:52:58.138Z,10.30
2022-12-26T15:55:59.347Z,10.30
2022-12-26T15:58:59.469Z,10.20
2022-12-26T16:01:55.254Z,10.20
2022-12-26T16:04:35.315Z,10.20
2022-12-26T16:07:37.371Z,10.10
2022-12-26T16:10:25.323Z,9.90
2022-12-26T16:13:01.579Z,9.70
2022-12-26T16:15:30.661Z,9.50
2022-12-26T16:18:19.718Z,9.30
2022-12-26T16:21:07.482Z,9.20
2022-12-26T16:23:39.249Z,9.20
2022-12-26T16:26:30.673Z,9.20
2022-12-26T16:29:01.057Z,9.20
2022-12-26T16:31:31.365Z,9.20
2022-12-26T16:34:00.209Z,9.20
2022-12-26T16:36:32.096Z,9.20
2022-12-26T16:38:59.513Z,9.10
2022-12-26T16:41:31.427Z,9.10
2022-12-26T16:44:36.349Z,9.00
2022-12-26T16:47:13.671Z,9.00
2022-12-26T16:49:43.728Z,8.90
2022-12-26T16:52:39.286Z,8.80
2022-12-26T16:55:37.351Z,8.70
2022-12-26T16:58:35.619Z,8.70
2022-12-26T17:01:08.654Z,8.70
2022-12-26T17:03:56.120Z,8.60
2022-12-26T17:06:39.864Z,8.60
2022-12-26T17:09:17.143Z,8.60
2022-12-26T17:12:02.639Z,8.50
2022-12-26T17:14:35.565Z,8.40
2022-12-26T17:17:28.318Z,8.40
2022-12-26T17:19:59.336Z,8.30
2022-12-26T17:22:33.819Z,8.40
2022-12-26T17:25:29.585Z,8.30
2022-12-26T17:28:09.407Z,8.30
2022-12-26T17:31:17.226Z,8.20
2022-12-26T17:33:48.057Z,8.20
2022-12-26T17:39:13.873Z,8.20
2022-12-26T17:42:00.874Z,8.20
2022-12-26T17:44:43.822Z,8.10
2022-12-26T17:47:28.945Z,8.00
2022-12-26T17:49:57.018Z,8.00
2022-12-26T17:52:28.633Z,8.00
2022-12-26T17:54:58.313Z,7.90
2022-12-26T17:57:29.868Z,7.90
2022-12-26T17:59:58.650Z,7.90
2022-12-26T18:02:26.211Z,7.80
2022-12-26T18:04:54.133Z,7.80
2022-12-26T18:07:30.987Z,7.80
2022-12-26T18:10:01.330Z,7.90
2022-12-26T18:12:28.838Z,8.00
2022-12-26T18:15:01.649Z,8.10
2022-12-26T18:17:33.613Z,8.20
2022-12-26T18:20:02.869Z,8.20
2022-12-26T18:22:31.259Z,8.20
2022-12-26T18:24:58.742Z,8.20
2022-12-26T18:27:33.422Z,8.20
2022-12-26T18:30:01.688Z,8.10
2022-12-26T18:32:32.940Z,8.20
2022-12-26T18:35:00.715Z,8.20
2022-12-26T18:37:30.264Z,8.10
2022-12-26T18:39:57.814Z,8.20
2022-12-26T18:42:26.777Z,8.10
2022-12-26T18:44:54.688Z,8.10
2022-12-26T18:47:22.797Z,8.00
2022-12-26T18:49:51.104Z,7.90
2022-12-26T18:52:18.620Z,7.90
2022-12-26T18:54:46.348Z,7.90
2022-12-26T18:57:19.930Z,7.80
2022-12-26T18:59:48.580Z,7.80
2022-12-26T19:02:19.149Z,7.70
2022-12-26T19:04:48.823Z,7.60
2022-12-26T19:07:20.516Z,7.50
2022-12-26T19:09:56.050Z,7.40
2022-12-26T19:12:24.623Z,7.30
2022-12-26T19:14:52.917Z,7.20
2022-12-26T19:17:20.349Z,7.20
2022-12-26T19:19:48.511Z,7.20
2022-12-26T19:22:15.967Z,7.20
2022-12-26T19:24:43.373Z,7.20
2022-12-26T19:27:10.775Z,7.20
2022-12-26T19:29:38.229Z,7.10
2022-12-26T19:32:05.762Z,7.00
2022-12-26T19:34:33.270Z,6.90
2022-12-26T19:37:00.821Z,6.70
2022-12-26T19:39:29.744Z,6.70
2022-12-26T19:41:57.239Z,6.70
2022-12-26T19:44:24.712Z,6.60
2022-12-26T19:47:11.172Z,6.50
2022-12-26T19:49:40.610Z,6.50
2022-12-26T19:52:08.592Z,6.40
2022-12-26T19:54:36.358Z,6.40
2022-12-26T19:57:04.024Z,6.30
2022-12-26T19:59:32.045Z,6.30
2022-12-26T20:01:59.977Z,6.30
2022-12-26T20:04:27.624Z,6.20
2022-12-26T20:06:55.955Z,6.10
2022-12-26T20:09:23.388Z,6.10
2022-12-26T20:11:50.874Z,6.00
2022-12-26T20:14:22.998Z,6.00
2022-12-26T20:17:09.551Z,6.10
2022-12-26T20:19:37.572Z,6.20
2022-12-26T20:22:06.705Z,6.40
2022-12-26T20:24:35.123Z,6.40
2022-12-26T20:27:03.024Z,6.40
2022-12-26T20:29:31.269Z,6.40
2022-12-26T20:31:59.024Z,6.40
2022-12-26T20:34:26.948Z,6.40
2022-12-26T20:36:54.418Z,6.30
2022-12-26T20:39:22.895Z,6.30
2022-12-26T20:41:50.315Z,6.30
2022-12-26T20:44:18.115Z,6.30
2022-12-26T20:46:46.920Z,6.30
2022-12-26T20:49:14.474Z,6.40
2022-12-26T20:51:44.222Z,6.50
2022-12-26T20:54:14.544Z,6.50
2022-12-26T20:56:43.169Z,6.50
2022-12-26T20:59:10.972Z,6.50
2022-12-26T21:01:40.112Z,6.40
2022-12-26T21:04:08.828Z,6.40
2022-12-26T21:06:37.968Z,6.40
2022-12-26T21:09:08.797Z,6.40
2022-12-26T21:11:39.934Z,6.40
2022-12-26T21:14:12.523Z,6.50
2022-12-26T21:16:50.038Z,6.60
2022-12-26T21:19:18.545Z,6.60
2022-12-26T21:21:49.574Z,6.60
2022-12-26T21:24:30.823Z,6.70
2022-12-26T21:26:59.304Z,6.70
2022-12-26T21:29:31.002Z,6.70
2022-12-26T21:31:59.833Z,6.70
2022-12-26T21:34:32.068Z,6.60
2022-12-26T21:37:18.690Z,6.60
2022-12-26T21:39:47.355Z,6.50
2022-12-26T21:42:14.915Z,6.50
2022-12-26T21:44:42.366Z,6.50
2022-12-26T21:47:09.894Z,6.70
2022-12-26T21:49:37.728Z,6.60
2022-12-26T21:52:07.151Z,6.60
2022-12-26T21:54:53.502Z,6.60
2022-12-26T21:57:21.996Z,6.70
2022-12-26T21:59:59.488Z,6.70
2022-12-26T22:02:55.494Z,6.70
2022-12-26T22:05:27.182Z,6.80
2022-12-26T22:08:01.119Z,6.80
2022-12-26T22:10:50.415Z,6.80
2022-12-26T22:13:19.752Z,6.70
2022-12-26T22:16:07.193Z,6.60
2022-12-26T22:18:37.845Z,6.60
2022-12-26T22:21:16.004Z,6.70
2022-12-26T22:23:44.859Z,6.70
2022-12-26T22:26:15.155Z,6.70
2022-12-26T22:28:43.877Z,6.90
2022-12-26T22:31:33.250Z,6.90
2022-12-26T22:34:12.061Z,7.00
2022-12-26T22:36:40.742Z,7.00
2022-12-26T22:39:09.612Z,7.20
2022-12-26T22:41:38.207Z,7.30
2022-12-26T22:44:05.762Z,7.40
2022-12-26T22:46:33.304Z,7.40
2022-12-26T22:49:00.982Z,7.40
2022-12-26T22:51:28.575Z,7.40
2022-12-26T22:53:58.017Z,7.50
2022-12-26T22:56:26.265Z,7.50
2022-12-26T22:59:00.798Z,7.50
2022-12-26T23:01:28.458Z,7.50
2022-12-26T23:03:56.214Z,7.50
2022-12-26T23:06:31.525Z,7.50
2022-12-26T23:09:02.888Z,7.60
2022-12-26T23:11:35.599Z,7.60
2022-12-26T23:14:06.780Z,7.70
2022-12-26T23:16:52.880Z,7.80
2022-12-26T23:20:05.855Z,7.30
2022-12-26T23:22:33.736Z,7.00
2022-12-26T23:25:38.512Z,6.90
2022-12-26T23:28:25.361Z,6.70
2022-12-26T23:30:52.892Z,6.60
2022-12-26T23:33:20.322Z,6.50
2022-12-26T23:35:48.392Z,6.40
2022-12-26T23:38:16.659Z,6.40
2022-12-26T23:40:44.054Z,6.30
2022-12-26T23:43:11.504Z,6.30
2022-12-26T23:45:43.832Z,6.20
2022-12-26T23:48:12.212Z,6.20
2022-12-26T23:50:40.310Z,6.30
2022-12-26T23:53:08.007Z,6.20
2022-12-26T23:55:35.583Z,6.20
2022-12-26T23:58:02.978Z,6.10
